createdAt,value
2023-01-18T00:04:09.044Z,15.57
2023-01-18T00:09:10.784Z,17.08
2023-01-18T00:14:12.440Z,17.10
2023-01-18T00:19:14.329Z,19.33
2023-01-18T00:24:15.982Z,17.58
2023-01-18T00:29:17.617Z,16.67
2023-01-18T00:34:19.306Z,18.75
2023-01-18T00:39:21.027Z,18.35
2023-01-18T00:44:22.635Z,18.67
2023-01-18T00:49:24.644Z,19.98
2023-01-18T00:54:26.296Z,21.05
2023-01-18T00:59:27.977Z,15.80
2023-01-18T01:04:48.276Z,18.38
2023-01-18T01:09:49.940Z,18.02
2023-01-18T01:15:10.206Z,17.73
2023-01-18T01:20:30.735Z,17.98
2023-01-18T01:25:51.043Z,18.17
2023-01-18T01:30:57.691Z,19.33
2023-01-18T01:36:01.923Z,18.80
2023-01-18T01:41:06.739Z,26.05
2023-01-18T01:46:17.977Z,19.08
2023-01-18T01:51:20.239Z,21.90
2023-01-18T01:56:22.207Z,22.05
2023-01-18T02:01:24.300Z,16.63
2023-01-18T02:06:32.618Z,21.83
2023-01-18T02:11:34.313Z,20.23
2023-01-18T02:17:18.366Z,22.10
2023-01-18T02:28:21.399Z,21.77
2023-01-18T02:38:41.955Z,17.77
2023-01-18T02:44:03.525Z,20.23
2023-01-18T02:49:11.460Z,23.23
2023-01-18T02:54:24.059Z,16.77
2023-01-18T02:59:41.874Z,24.42
2023-01-18T03:04:54.053Z,19.52
2023-01-18T03:09:58.020Z,16.83
2023-01-18T03:15:31.771Z,19.92
2023-01-18T03:20:39.389Z,23.33
2023-01-18T03:25:44.490Z,21.98
2023-01-18T03:31:08.024Z,26.20
2023-01-18T03:36:23.433Z,23.35
2023-01-18T03:41:29.161Z,20.95
2023-01-18T03:46:33.119Z,19.67
2023-01-18T03:51:47.427Z,19.08
2023-01-18T03:57:03.194Z,20.55
2023-01-18T04:02:07.750Z,21.00
2023-01-18T04:07:09.637Z,22.63
2023-01-18T04:12:11.340Z,21.48
2023-01-18T04:17:13.059Z,21.63
2023-01-18T04:22:14.730Z,23.08
2023-01-18T04:27:16.371Z,25.10
2023-01-18T04:32:18.070Z,25.77
2023-01-18T04:37:19.777Z,20.02
2023-01-18T04:42:21.437Z,24.17
2023-01-18T04:47:23.152Z,24.73
2023-01-18T04:52:26.601Z,24.23
2023-01-18T05:02:29.952Z,21.20
2023-01-18T05:07:33.705Z,24.65
2023-01-18T05:12:35.369Z,25.80
2023-01-18T05:17:37.031Z,30.75
2023-01-18T05:22:38.784Z,29.00
2023-01-18T05:27:40.416Z,33.00
2023-01-18T05:32:42.771Z,25.92
2023-01-18T05:37:44.415Z,30.15
2023-01-18T05:42:46.172Z,31.38
2023-01-18T05:47:47.817Z,35.90
2023-01-18T05:52:49.523Z,32.95
2023-01-18T05:57:51.190Z,33.42
2023-01-18T06:02:53.881Z,28.65
2023-01-18T06:07:55.547Z,31.73
2023-01-18T06:12:57.464Z,36.90
2023-01-18T06:17:59.890Z,28.35
2023-01-18T06:23:01.767Z,27.00
2023-01-18T06:28:05.003Z,32.65
2023-01-18T06:33:07.281Z,30.60
2023-01-18T06:38:09.459Z,30.45
2023-01-18T06:43:13.920Z,31.90
2023-01-18T06:48:15.590Z,31.80
2023-01-18T06:53:17.312Z,26.73
2023-01-18T06:58:19.012Z,36.95
2023-01-18T07:03:20.764Z,33.97
2023-01-18T07:08:23.561Z,34.50
2023-01-18T07:13:25.655Z,30.13
2023-01-18T07:18:30.006Z,36.38
2023-01-18T07:23:31.731Z,36.78
2023-01-18T07:28:34.363Z,40.92
2023-01-18T07:33:36.997Z,39.00
2023-01-18T07:38:39.215Z,33.63
2023-01-18T07:43:42.622Z,41.35
2023-01-18T07:53:46.650Z,38.08
2023-01-18T07:58:48.678Z,39.47
2023-01-18T08:03:51.045Z,41.70
2023-01-18T08:08:55.236Z,41.45
2023-01-18T08:13:56.989Z,44.40
2023-01-18T08:18:58.633Z,39.85
2023-01-18T08:24:00.294Z,37.05
2023-01-18T08:29:02.170Z,35.97
2023-01-18T08:34:03.915Z,38.55
2023-01-18T08:39:05.661Z,46.05
2023-01-18T08:44:07.708Z,48.80
2023-01-18T08:49:10.702Z,43.67
2023-01-18T08:54:12.668Z,51.25
2023-01-18T08:59:14.449Z,43.90
2023-01-18T09:04:16.158Z,43.53
2023-01-18T09:09:18.732Z,48.40
2023-01-18T09:14:20.471Z,42.75
2023-01-18T09:19:22.259Z,48.60
2023-01-18T09:24:24.285Z,43.88
2023-01-18T09:29:26.050Z,43.35
2023-01-18T09:34:27.675Z,42.70
2023-01-18T09:39:33.377Z,46.10
2023-01-18T09:44:42.206Z,44.50
2023-01-18T09:49:54.798Z,45.20
2023-01-18T09:55:24.690Z,46.80
2023-01-18T10:00:29.668Z,47.35
2023-01-18T10:05:36.579Z,47.85
2023-01-18T10:10:44.491Z,48.05
2023-01-18T10:15:47.385Z,42.17
2023-01-18T10:20:57.705Z,39.57
2023-01-18T10:26:07.702Z,41.13
2023-01-18T10:31:39.952Z,37.90
2023-01-18T10:36:44.933Z,43.05
2023-01-18T10:41:46.546Z,42.33
2023-01-18T10:46:48.581Z,42.88
2023-01-18T10:51:50.283Z,37.55
2023-01-18T10:57:03.293Z,39.70
2023-01-18T11:02:05.562Z,33.87
2023-01-18T11:07:07.339Z,32.92
2023-01-18T11:12:48.473Z,32.60
2023-01-18T11:18:00.247Z,34.95
2023-01-18T11:23:06.045Z,32.08
2023-01-18T11:28:34.689Z,29.85
2023-01-18T11:33:49.034Z,28.05
2023-01-18T11:38:50.684Z,28.63
2023-01-18T11:43:55.144Z,29.88
2023-01-18T11:49:21.842Z,30.27
2023-01-18T11:54:26.727Z,26.58
2023-01-18T11:59:29.434Z,31.02
2023-01-18T12:04:52.593Z,27.25
2023-01-18T12:09:59.799Z,28.95
2023-01-18T12:15:20.785Z,23.50
2023-01-18T12:20:32.847Z,25.70
2023-01-18T12:26:16.118Z,29.48
2023-01-18T12:31:28.143Z,26.77
2023-01-18T12:36:46.348Z,25.45
2023-01-18T12:41:59.659Z,23.98
2023-01-18T12:47:04.178Z,24.53
2023-01-18T12:52:18.434Z,24.15
2023-01-18T12:57:21.409Z,21.45
2023-01-18T13:02:34.808Z,14.05
2023-01-18T13:07:41.893Z,7.57
2023-01-18T13:12:44.823Z,4.47
2023-01-18T13:18:00.728Z,4.45
2023-01-18T13:23:15.756Z,7.10
2023-01-18T13:28:21.288Z,9.63
2023-01-18T13:33:26.004Z,5.18
2023-01-18T13:38:40.703Z,4.68
2023-01-18T13:43:43.183Z,8.07
2023-01-18T13:48:55.654Z,7.40
2023-01-18T13:53:57.470Z,4.35
2023-01-18T13:59:02.569Z,5.13
2023-01-18T14:04:24.081Z,6.40
2023-01-18T14:09:52.127Z,6.55
2023-01-18T14:14:59.334Z,10.55
2023-01-18T14:20:19.600Z,7.15
2023-01-18T14:26:06.227Z,9.18
2023-01-18T14:31:23.746Z,6.60
2023-01-18T14:36:28.268Z,8.50
2023-01-18T14:41:31.376Z,5.30
2023-01-18T14:46:33.343Z,8.70
2023-01-18T14:51:35.311Z,5.03
2023-01-18T14:56:43.132Z,8.48
2023-01-18T15:02:12.487Z,5.95
2023-01-18T15:07:18.994Z,6.55
2023-01-18T15:12:28.644Z,7.78
2023-01-18T15:17:31.484Z,5.85
2023-01-18T15:22:36.590Z,7.38
2023-01-18T15:27:38.289Z,7.38
2023-01-18T15:32:40.158Z,6.25
2023-01-18T15:37:42.134Z,10.13
2023-01-18T15:43:04.665Z,8.27
2023-01-18T15:48:22.683Z,9.10
2023-01-18T15:53:35.699Z,7.72
2023-01-18T15:58:43.380Z,11.23
2023-01-18T16:03:45.957Z,8.65
2023-01-18T16:09:10.583Z,8.07
2023-01-18T16:14:28.725Z,12.98
2023-01-18T16:19:36.356Z,9.98
2023-01-18T16:24:58.040Z,8.52
2023-01-18T16:30:02.520Z,16.95
2023-01-18T16:35:16.651Z,31.58
2023-01-18T16:40:20.856Z,13.77
2023-01-18T16:45:22.651Z,14.02
2023-01-18T16:50:24.442Z,11.57
2023-01-18T16:55:26.243Z,12.45
2023-01-18T17:00:35.599Z,12.60
2023-01-18T17:05:37.294Z,14.80
2023-01-18T17:10:42.222Z,14.52
2023-01-18T17:15:45.509Z,20.45
2023-01-18T17:20:47.435Z,18.77
2023-01-18T17:25:49.417Z,13.48
2023-01-18T17:30:51.517Z,13.68
2023-01-18T17:35:54.425Z,12.98
2023-01-18T17:40:56.260Z,15.27
2023-01-18T17:46:01.893Z,14.88
2023-01-18T17:51:12.035Z,16.85
2023-01-18T17:56:16.465Z,20.42
2023-01-18T18:01:19.316Z,17.83
2023-01-18T18:06:30.773Z,18.43
2023-01-18T18:11:33.349Z,14.07
2023-01-18T18:16:42.868Z,16.90
2023-01-18T18:21:47.923Z,14.25
2023-01-18T18:26:57.183Z,19.52
2023-01-18T18:31:59.288Z,20.40
2023-01-18T18:37:02.860Z,20.00
2023-01-18T18:42:04.662Z,20.95
2023-01-18T18:47:08.703Z,23.55
2023-01-18T18:52:11.198Z,21.23
2023-01-18T18:57:13.007Z,24.80
2023-01-18T19:02:16.342Z,28.40
2023-01-18T19:07:18.665Z,24.27
2023-01-18T19:12:20.388Z,28.02
2023-01-18T19:17:30.454Z,24.42
2023-01-18T19:22:32.880Z,22.83
2023-01-18T19:27:34.636Z,32.80
2023-01-18T19:32:37.079Z,28.20
2023-01-18T19:37:39.620Z,34.10
2023-01-18T19:42:41.577Z,24.58
2023-01-18T19:47:43.246Z,27.15
2023-01-18T19:52:46.233Z,21.45
2023-01-18T19:57:48.663Z,22.33
2023-01-18T20:02:50.664Z,22.02
2023-01-18T20:07:52.614Z,23.05
2023-01-18T20:12:54.347Z,21.63
2023-01-18T20:17:56.034Z,24.05
2023-01-18T20:22:58.219Z,21.23
2023-01-18T20:28:00.355Z,24.05
2023-01-18T20:33:02.521Z,24.40
2023-01-18T20:38:04.510Z,21.40
2023-01-18T20:43:06.583Z,19.30
2023-01-18T20:48:08.572Z,23.33
2023-01-18T20:53:11.288Z,21.33
2023-01-18T20:58:13.006Z,25.00
2023-01-18T21:03:17.864Z,25.65
2023-01-18T21:08:19.705Z,19.73
2023-01-18T21:13:21.839Z,22.17
2023-01-18T21:18:24.211Z,23.55
2023-01-18T21:23:27.128Z,24.88
2023-01-18T21:28:28.976Z,21.63
2023-01-18T21:33:31.593Z,26.48
2023-01-18T21:38:33.390Z,16.85
2023-01-18T21:43:53.590Z,21.88
2023-01-18T21:48:55.366Z,22.65
2023-01-18T21:54:15.412Z,17.15
2023-01-18T21:59:17.158Z,19.17
2023-01-18T22:04:37.636Z,17.77
2023-01-18T22:09:39.547Z,18.25
2023-01-18T22:14:41.384Z,20.27
2023-01-18T22:19:43.875Z,20.05
2023-01-18T22:24:45.534Z,17.15
2023-01-18T22:29:47.192Z,19.95
2023-01-18T22:34:48.848Z,23.27
2023-01-18T22:39:50.593Z,20.05
2023-01-18T22:44:52.343Z,20.92
2023-01-18T22:49:54.130Z,17.73
2023-01-18T22:54:55.823Z,16.92
2023-01-18T22:59:57.563Z,19.42
2023-01-18T23:05:00.438Z,15.40
2023-01-18T23:10:02.141Z,19.35
2023-01-18T23:15:22.744Z,20.95
2023-01-18T23:20:24.539Z,21.50
2023-01-18T23:25:26.284Z,20.52
2023-01-18T23:30:28.061Z,19.08
2023-01-18T23:35:29.869Z,19.15
2023-01-18T23:40:50.236Z,15.30
2023-01-18T23:46:10.804Z,18.80
2023-01-18T23:51:31.359Z,17.52
2023-01-18T23:56:33.289Z,19.77
